Time;durP1;ratioP1;P1;durP2;ratioP2;P2;SDS_P1;SDS_P2;PMS_P1;PMS_P2;Temp;Humidity;BMP_temperature;BMP_pressure;BME280_temperature;BME280_humidity;BME280_pressure;Samples;Min_cycle;Max_cycle;Signal;HPM_P1;HPM_P2
2022/08/30 10:08:14;;;;;;;19.92;5.35;;;;;;;;;;5061046;28;20398;-69
2022/08/30 10:10:40;;;;;;;29.08;6.53;;;;;;;;;;5046999;28;20079;-69
2022/08/30 10:13:18;;;;;;;16.63;5.35;;;;;;;;;;5043233;28;21103;-69
2022/08/30 10:15:53;;;;;;;21.33;5.47;;;;;;;;;;5043917;28;20061;-69
2022/08/30 10:18:33;;;;;;;15.70;5.22;;;;;;;;;;5045777;28;20029;-69
2022/08/30 10:21:17;;;;;;;22.25;5.38;;;;;;;;;;5042755;28;20044;-69
2022/08/30 10:23:52;;;;;;;16.77;4.57;;;;;;;;;;5047006;28;20029;-67
2022/08/30 10:26:28;;;;;;;18.38;6.13;;;;;;;;;;5045727;28;20112;-67
2022/08/30 10:28:57;;;;;;;21.33;5.32;;;;;;;;;;5044423;28;20033;-67
2022/08/30 10:31:26;;;;;;;16.38;5.03;;;;;;;;;;5044579;28;20755;-67
2022/08/30 10:33:55;;;;;;;17.27;5.18;;;;;;;;;;5033693;28;20022;-67
2022/08/30 10:36:30;;;;;;;16.60;4.35;;;;;;;;;;5017112;28;20037;-67
2022/08/30 10:38:57;;;;;;;15.48;5.05;;;;;;;;;;5014854;28;20041;-67
2022/08/30 10:41:23;;;;;;;23.55;5.40;;;;;;;;;;5015547;28;20030;-67
2022/08/30 10:43:52;;;;;;;19.67;5.97;;;;;;;;;;5015686;28;20030;-67
2022/08/30 10:46:37;;;;;;;15.27;4.55;;;;;;;;;;5022382;28;20026;-67
2022/08/30 10:49:04;;;;;;;21.42;5.60;;;;;;;;;;5015156;28;20033;-67
2022/08/30 10:51:38;;;;;;;18.77;4.65;;;;;;;;;;5016822;28;20018;-67
2022/08/30 10:54:10;;;;;;;14.88;4.78;;;;;;;;;;5018550;28;20030;-66
2022/08/30 10:56:38;;;;;;;13.50;5.60;;;;;;;;;;5022226;28;20032;-66
2022/08/30 10:59:05;;;;;;;18.90;5.15;;;;;;;;;;5017905;28;20378;-66
2022/08/30 11:01:48;;;;;;;11.98;5.05;;;;;;;;;;5018607;28;20021;-66
2022/08/30 11:04:21;;;;;;;21.60;5.10;;;;;;;;;;5018844;28;20113;-66
2022/08/30 11:06:56;;;;;;;15.23;4.75;;;;;;;;;;5022954;28;20042;-66
2022/08/30 11:09:34;;;;;;;13.77;4.75;;;;;;;;;;5012420;28;20029;-66
2022/08/30 11:12:19;;;;;;;16.50;5.22;;;;;;;;;;5017304;28;20046;-66
2022/08/30 11:14:45;;;;;;;14.13;5.45;;;;;;;;;;5016347;28;20032;-66
2022/08/30 11:17:32;;;;;;;22.48;5.47;;;;;;;;;;5009771;28;20026;-66
2022/08/30 11:20:00;;;;;;;12.48;4.38;;;;;;;;;;4997798;28;20034;-66
2022/08/30 11:22:36;;;;;;;18.25;5.07;;;;;;;;;;5002354;28;20034;-66
2022/08/30 11:25:02;;;;;;;18.42;4.72;;;;;;;;;;4996386;28;20409;-66
2022/08/30 11:27:43;;;;;;;13.10;4.55;;;;;;;;;;5001540;28;20030;-66
2022/08/30 11:30:25;;;;;;;15.88;4.45;;;;;;;;;;5002654;28;20374;-66
2022/08/30 11:33:02;;;;;;;22.65;5.55;;;;;;;;;;5001262;28;20030;-66
2022/08/30 11:35:36;;;;;;;10.48;3.85;;;;;;;;;;5002219;28;20029;-66
2022/08/30 11:38:11;;;;;;;20.70;4.90;;;;;;;;;;4996339;28;20022;-66
2022/08/30 11:41:06;;;;;;;17.80;5.03;;;;;;;;;;4997244;28;20116;-66
2022/08/30 11:43:38;;;;;;;13.10;4.88;;;;;;;;;;4994194;28;20045;-66
2022/08/30 11:46:13;;;;;;;14.38;4.57;;;;;;;;;;4998984;28;20425;-66
2022/08/30 11:48:51;;;;;;;18.50;4.97;;;;;;;;;;5004371;28;20492;-66
2022/08/30 11:51:29;;;;;;;13.70;4.75;;;;;;;;;;5021258;28;20145;-66
2022/08/30 11:53:59;;;;;;;14.73;4.95;;;;;;;;;;5001372;28;20066;-66
2022/08/30 11:56:32;;;;;;;16.13;5.10;;;;;;;;;;5001633;28;20073;-66
2022/08/30 11:58:58;;;;;;;25.13;5.68;;;;;;;;;;4999359;28;20037;-66
2022/08/30 12:01:24;;;;;;;16.05;4.82;;;;;;;;;;5000013;28;20065;-66
2022/08/30 12:03:55;;;;;;;15.07;4.78;;;;;;;;;;4998029;28;20072;-66
2022/08/30 12:06:48;;;;;;;14.50;4.20;;;;;;;;;;4999904;28;20082;-66
2022/08/30 12:09:20;;;;;;;16.27;3.93;;;;;;;;;;4998142;28;20054;-66
2022/08/30 12:12:18;;;;;;;16.27;5.25;;;;;;;;;;5000668;28;20273;-66
2022/08/30 12:14:50;;;;;;;16.73;5.00;;;;;;;;;;4989359;28;20030;-66
2022/08/30 12:20:14;;;;;;;10.00;3.85;;;;;;;;;;5001879;28;20392;-66
2022/08/30 12:22:40;;;;;;;9.25;4.43;;;;;;;;;;5001387;28;20454;-66
2022/08/30 12:25:15;;;;;;;14.48;4.85;;;;;;;;;;5001876;28;20071;-66
2022/08/30 12:27:41;;;;;;;12.18;4.82;;;;;;;;;;4999879;28;20077;-66
2022/08/30 12:30:08;;;;;;;16.08;4.45;;;;;;;;;;4994123;28;20027;-66
2022/08/30 12:32:42;;;;;;;11.02;4.05;;;;;;;;;;4996978;28;20030;-66
2022/08/30 12:35:17;;;;;;;15.00;4.22;;;;;;;;;;4994954;28;20445;-66
2022/08/30 12:37:43;;;;;;;13.50;4.07;;;;;;;;;;4997096;28;20030;-66
2022/08/30 12:40:09;;;;;;;18.83;4.25;;;;;;;;;;4993747;28;20103;-66
2022/08/30 12:42:37;;;;;;;16.92;4.28;;;;;;;;;;4998112;28;20049;-66
2022/08/30 12:45:10;;;;;;;10.30;4.43;;;;;;;;;;5004797;28;20038;-66
2022/08/30 12:47:43;;;;;;;20.92;4.85;;;;;;;;;;5006498;28;20410;-66
2022/08/30 12:50:10;;;;;;;19.95;5.18;;;;;;;;;;5007752;28;20488;-66
2022/08/30 12:52:38;;;;;;;18.33;4.75;;;;;;;;;;5008821;28;20041;-66
2022/08/30 12:55:09;;;;;;;10.98;4.57;;;;;;;;;;5008267;28;20018;-66
2022/08/30 12:57:37;;;;;;;18.83;5.40;;;;;;;;;;5011286;28;20486;-66
2022/08/30 13:00:04;;;;;;;17.02;4.80;;;;;;;;;;5007837;28;20515;-66
2022/08/30 13:02:43;;;;;;;15.07;4.88;;;;;;;;;;5001377;28;20027;-66
2022/08/30 13:05:29;;;;;;;13.25;5.30;;;;;;;;;;4994132;28;20026;-65
2022/08/30 13:08:07;;;;;;;17.60;4.95;;;;;;;;;;4993241;28;20046;-66
2022/08/30 13:10:34;;;;;;;17.05;5.22;;;;;;;;;;4997055;28;20026;-66
2022/08/30 13:13:03;;;;;;;16.55;4.80;;;;;;;;;;5013557;28;20486;-66
2022/08/30 13:15:31;;;;;;;17.48;4.43;;;;;;;;;;5009807;28;20486;-66
2022/08/30 13:18:11;;;;;;;21.10;5.03;;;;;;;;;;5007176;28;20034;-66
2022/08/30 13:20:37;;;;;;;17.83;4.63;;;;;;;;;;5006187;28;20061;-66
2022/08/30 13:23:08;;;;;;;21.02;5.30;;;;;;;;;;5007844;28;20473;-66
2022/08/30 13:25:35;;;;;;;15.70;4.63;;;;;;;;;;5005141;28;20118;-66
2022/08/30 13:28:02;;;;;;;21.35;5.88;;;;;;;;;;5005274;28;20036;-66
2022/08/30 13:30:28;;;;;;;12.90;4.38;;;;;;;;;;5003128;28;20529;-66
2022/08/30 13:32:54;;;;;;;20.60;5.43;;;;;;;;;;5009850;28;20022;-66
2022/08/30 13:35:21;;;;;;;20.75;5.05;;;;;;;;;;5023196;28;20041;-66
2022/08/30 13:37:47;;;;;;;17.45;4.68;;;;;;;;;;5004558;28;20036;-70
2022/08/30 13:40:15;;;;;;;18.75;5.25;;;;;;;;;;5004379;28;20030;-67
2022/08/30 13:42:42;;;;;;;21.92;5.82;;;;;;;;;;5000646;28;20019;-67
2022/08/30 13:45:09;;;;;;;17.10;5.47;;;;;;;;;;4994719;28;20043;-67
2022/08/30 13:47:35;;;;;;;18.20;5.20;;;;;;;;;;4997162;28;20109;-67
2022/08/30 13:50:02;;;;;;;19.48;4.88;;;;;;;;;;4999723;28;20030;-67
2022/08/30 13:52:28;;;;;;;13.23;4.95;;;;;;;;;;4995216;28;20526;-67
2022/08/30 13:54:55;;;;;;;18.20;4.70;;;;;;;;;;5000455;28;20023;-67
2022/08/30 13:57:23;;;;;;;18.88;4.97;;;;;;;;;;4996780;28;20084;-67
2022/08/30 13:59:49;;;;;;;16.17;4.75;;;;;;;;;;4995614;28;20100;-67
2022/08/30 14:02:15;;;;;;;15.48;4.40;;;;;;;;;;4999335;28;20033;-67
2022/08/30 14:04:41;;;;;;;18.27;5.00;;;;;;;;;;4999218;28;20038;-67
2022/08/30 14:07:07;;;;;;;17.33;4.55;;;;;;;;;;4998350;28;20517;-67
2022/08/30 14:09:34;;;;;;;15.57;5.13;;;;;;;;;;4995327;28;20034;-67
2022/08/30 14:12:00;;;;;;;15.55;5.13;;;;;;;;;;5011083;28;20022;-67
2022/08/30 14:14:26;;;;;;;17.67;4.90;;;;;;;;;;5019161;28;20112;-67
2022/08/30 14:16:52;;;;;;;18.80;5.07;;;;;;;;;;5008911;28;20470;-67
2022/08/30 14:19:18;;;;;;;18.90;5.15;;;;;;;;;;5001757;28;20057;-67
2022/08/30 14:21:45;;;;;;;11.63;4.20;;;;;;;;;;4998536;28;20406;-67
2022/08/30 14:24:11;;;;;;;18.05;4.75;;;;;;;;;;4997986;28;20039;-67
2022/08/30 14:26:44;;;;;;;16.65;5.10;;;;;;;;;;5012849;28;20026;-67
2022/08/30 14:29:11;;;;;;;16.27;4.88;;;;;;;;;;4994685;28;20088;-67
2022/08/30 14:31:40;;;;;;;12.55;4.35;;;;;;;;;;4993331;28;20679;-67
2022/08/30 14:34:07;;;;;;;13.75;4.22;;;;;;;;;;4993847;28;20027;-67
2022/08/30 14:36:35;;;;;;;15.77;4.60;;;;;;;;;;4993734;28;20026;-67
2022/08/30 14:39:03;;;;;;;14.95;5.20;;;;;;;;;;4995219;28;20034;-67
2022/08/30 14:41:29;;;;;;;16.83;4.95;;;;;;;;;;4994506;28;20029;-67
2022/08/30 14:43:55;;;;;;;26.08;5.85;;;;;;;;;;4995129;28;20037;-73
2022/08/30 14:46:24;;;;;;;20.80;4.82;;;;;;;;;;4994211;28;20026;-67
2022/08/30 14:48:50;;;;;;;20.95;5.18;;;;;;;;;;4994147;28;20438;-67
2022/08/30 14:51:18;;;;;;;12.88;4.65;;;;;;;;;;4995771;28;20026;-67
2022/08/30 14:53:45;;;;;;;13.95;4.50;;;;;;;;;;5000410;28;20069;-67
2022/08/30 14:56:13;;;;;;;14.15;4.82;;;;;;;;;;5002441;28;20062;-67
2022/08/30 14:58:39;;;;;;;22.55;4.85;;;;;;;;;;4999227;28;20018;-67
2022/08/30 15:01:07;;;;;;;23.08;5.18;;;;;;;;;;4998866;28;20025;-66
2022/08/30 15:03:33;;;;;;;19.42;5.10;;;;;;;;;;5001044;28;20038;-67
2022/08/30 15:05:59;;;;;;;19.35;5.00;;;;;;;;;;4997559;28;20042;-67
2022/08/30 15:08:26;;;;;;;21.23;4.55;;;;;;;;;;5003071;28;20014;-66
2022/08/30 15:10:52;;;;;;;18.13;4.72;;;;;;;;;;5000250;28;20065;-67
2022/08/30 15:13:18;;;;;;;18.38;4.95;;;;;;;;;;4997298;28;20026;-67
2022/08/30 15:15:44;;;;;;;19.02;4.97;;;;;;;;;;5001328;28;20076;-67
2022/08/30 15:18:10;;;;;;;25.30;5.70;;;;;;;;;;4998645;28;20034;-67
2022/08/30 15:20:37;;;;;;;17.92;4.78;;;;;;;;;;4996256;28;20037;-67
2022/08/30 15:23:03;;;;;;;18.75;5.03;;;;;;;;;;4996939;28;20026;-66
2022/08/30 15:25:29;;;;;;;19.27;4.93;;;;;;;;;;4997139;28;20149;-66
2022/08/30 15:27:55;;;;;;;16.13;4.32;;;;;;;;;;5000973;28;20038;-66
2022/08/30 15:30:21;;;;;;;21.08;4.75;;;;;;;;;;5000940;28;20112;-66
2022/08/30 15:32:47;;;;;;;19.80;5.03;;;;;;;;;;5002145;28;20042;-66
2022/08/30 15:35:14;;;;;;;18.40;4.95;;;;;;;;;;5001556;28;20406;-66
2022/08/30 15:37:40;;;;;;;11.50;4.75;;;;;;;;;;5001142;28;20096;-66
2022/08/30 15:40:06;;;;;;;16.17;4.68;;;;;;;;;;4998470;28;20101;-66
2022/08/30 15:42:32;;;;;;;12.40;4.78;;;;;;;;;;4999306;28;20118;-66
2022/08/30 15:44:58;;;;;;;16.60;4.20;;;;;;;;;;5000476;28;20038;-66
2022/08/30 15:47:24;;;;;;;20.38;4.95;;;;;;;;;;5005689;28;20124;-66
2022/08/30 15:49:57;;;;;;;20.38;5.47;;;;;;;;;;5003926;28;20052;-66
2022/08/30 15:52:24;;;;;;;18.48;5.82;;;;;;;;;;5003043;28;20378;-66
2022/08/30 15:54:50;;;;;;;21.50;4.90;;;;;;;;;;5006807;28;20033;-66
2022/08/30 15:57:16;;;;;;;19.73;4.57;;;;;;;;;;5014734;28;20041;-66
2022/08/30 15:59:42;;;;;;;25.58;5.43;;;;;;;;;;5013141;28;20021;-66
2022/08/30 16:02:08;;;;;;;15.55;4.47;;;;;;;;;;5008925;28;20029;-66
2022/08/30 16:04:35;;;;;;;18.02;4.85;;;;;;;;;;5003142;28;20431;-66
2022/08/30 16:07:01;;;;;;;21.77;4.97;;;;;;;;;;5002136;28;20081;-67
2022/08/30 16:09:27;;;;;;;18.42;4.95;;;;;;;;;;4998747;28;20577;-66
2022/08/30 16:11:53;;;;;;;23.58;4.93;;;;;;;;;;5000952;28;20029;-66
2022/08/30 16:14:19;;;;;;;15.82;4.78;;;;;;;;;;4995834;28;20033;-66
2022/08/30 16:16:46;;;;;;;21.52;5.30;;;;;;;;;;4998713;28;20537;-66
2022/08/30 16:19:12;;;;;;;14.38;4.18;;;;;;;;;;4999003;28;20022;-66
2022/08/30 16:21:40;;;;;;;15.63;4.18;;;;;;;;;;4999797;28;20022;-66
2022/08/30 16:24:07;;;;;;;17.42;4.65;;;;;;;;;;4997966;28;20026;-66
2022/08/30 16:26:34;;;;;;;15.80;4.13;;;;;;;;;;5004400;28;20033;-67
2022/08/30 16:29:00;;;;;;;15.02;4.32;;;;;;;;;;5005829;28;20061;-66
2022/08/30 16:31:28;;;;;;;19.58;4.18;;;;;;;;;;5008872;28;20018;-66
2022/08/30 16:33:54;;;;;;;26.65;5.07;;;;;;;;;;5005005;28;20022;-67
2022/08/30 16:36:22;;;;;;;17.63;4.25;;;;;;;;;;5009752;28;20058;-66
2022/08/30 16:38:48;;;;;;;20.75;4.38;;;;;;;;;;5001074;28;20022;-67
2022/08/30 16:41:15;;;;;;;15.77;5.03;;;;;;;;;;4998835;28;20109;-67
2022/08/30 16:43:41;;;;;;;14.32;4.65;;;;;;;;;;4997738;28;20554;-66
2022/08/30 16:46:09;;;;;;;22.52;5.65;;;;;;;;;;4994676;28;20494;-66
2022/08/30 16:48:36;;;;;;;16.90;4.75;;;;;;;;;;4998765;28;20018;-66
2022/08/30 16:51:13;;;;;;;16.70;6.30;;;;;;;;;;4998573;28;20025;-66
2022/08/30 16:53:40;;;;;;;23.63;5.25;;;;;;;;;;4999455;28;20413;-66
2022/08/30 16:56:11;;;;;;;17.30;5.20;;;;;;;;;;4995976;28;20490;-66
2022/08/30 16:58:37;;;;;;;19.48;5.75;;;;;;;;;;4997784;28;20027;-66
2022/08/30 17:01:03;;;;;;;20.25;5.20;;;;;;;;;;5001436;28;20463;-66
2022/08/30 17:03:30;;;;;;;24.15;5.07;;;;;;;;;;5001824;28;20030;-66
2022/08/30 17:05:56;;;;;;;18.23;5.82;;;;;;;;;;4995488;28;20037;-67
2022/08/30 17:08:23;;;;;;;20.55;5.13;;;;;;;;;;5000210;28;20038;-67
2022/08/30 17:10:49;;;;;;;21.30;5.88;;;;;;;;;;4998046;28;20537;-66
2022/08/30 17:13:15;;;;;;;23.02;5.80;;;;;;;;;;5002269;28;20064;-66
2022/08/30 17:15:44;;;;;;;28.50;6.18;;;;;;;;;;4998622;28;20022;-66
2022/08/30 17:18:11;;;;;;;16.05;5.57;;;;;;;;;;4998137;28;20383;-66
2022/08/30 17:20:37;;;;;;;17.95;5.28;;;;;;;;;;4997065;28;20026;-66
2022/08/30 17:23:03;;;;;;;22.08;5.05;;;;;;;;;;4997663;28;20063;-66
2022/08/30 17:25:29;;;;;;;29.08;6.80;;;;;;;;;;4997625;28;20026;-66
2022/08/30 17:27:55;;;;;;;21.33;5.63;;;;;;;;;;5000309;28;20097;-66
2022/08/30 17:30:22;;;;;;;21.95;6.28;;;;;;;;;;5004523;28;20026;-66
2022/08/30 17:32:48;;;;;;;19.25;5.82;;;;;;;;;;4996948;28;20077;-66
2022/08/30 17:35:14;;;;;;;20.90;6.47;;;;;;;;;;4997157;28;20497;-66
2022/08/30 17:37:41;;;;;;;22.30;4.90;;;;;;;;;;5000393;28;20518;-66
2022/08/30 17:40:07;;;;;;;24.58;5.97;;;;;;;;;;5000251;28;20029;-67
2022/08/30 17:42:33;;;;;;;27.05;5.30;;;;;;;;;;4996678;28;20044;-66
2022/08/30 17:45:05;;;;;;;22.52;5.35;;;;;;;;;;4999129;28;20033;-66
2022/08/30 17:47:31;;;;;;;21.02;5.30;;;;;;;;;;5005415;28;20064;-67
2022/08/30 17:49:58;;;;;;;17.98;5.30;;;;;;;;;;4999760;28;20105;-66
2022/08/30 17:52:24;;;;;;;17.65;4.82;;;;;;;;;;4997147;28;20029;-66
2022/08/30 17:54:52;;;;;;;19.17;4.60;;;;;;;;;;4997962;28;20022;-66
2022/08/30 17:57:18;;;;;;;14.68;4.90;;;;;;;;;;5013492;28;20033;-66
2022/08/30 17:59:44;;;;;;;15.65;4.78;;;;;;;;;;5010534;28;20038;-66
2022/08/30 18:02:11;;;;;;;20.20;5.80;;;;;;;;;;5011333;28;20398;-66
2022/08/30 18:04:38;;;;;;;15.75;4.60;;;;;;;;;;5011646;28;20608;-66
2022/08/30 18:07:04;;;;;;;20.38;5.57;;;;;;;;;;5004343;28;20521;-67
2022/08/30 18:09:30;;;;;;;15.02;4.82;;;;;;;;;;5000748;28;20110;-66
2022/08/30 18:11:56;;;;;;;20.90;5.15;;;;;;;;;;5002221;28;20034;-66
2022/08/30 18:14:23;;;;;;;18.77;4.40;;;;;;;;;;5005011;28;20017;-66
2022/08/30 18:16:49;;;;;;;20.20;5.40;;;;;;;;;;5006985;28;20025;-66
2022/08/30 18:19:15;;;;;;;15.90;4.85;;;;;;;;;;5009565;28;20113;-66
2022/08/30 18:21:42;;;;;;;14.70;4.70;;;;;;;;;;5002762;28;20017;-66
2022/08/30 18:24:08;;;;;;;19.48;4.53;;;;;;;;;;5010587;28;20125;-66
2022/08/30 18:26:34;;;;;;;15.48;5.25;;;;;;;;;;5001854;28;20030;-66
2022/08/30 18:29:00;;;;;;;21.77;4.82;;;;;;;;;;5006927;28;20021;-66
2022/08/30 18:31:26;;;;;;;23.10;5.53;;;;;;;;;;4998943;28;20194;-67
2022/08/30 18:33:53;;;;;;;16.23;5.13;;;;;;;;;;5001456;28;20041;-67
2022/08/30 18:36:19;;;;;;;16.35;6.03;;;;;;;;;;5000167;28;20454;-67
2022/08/30 18:38:45;;;;;;;19.98;5.43;;;;;;;;;;5006165;28;20106;-67
2022/08/30 18:41:13;;;;;;;19.65;5.40;;;;;;;;;;5002163;28;20908;-67
2022/08/30 18:43:39;;;;;;;12.82;4.90;;;;;;;;;;5002800;28;20509;-67
2022/08/30 18:46:07;;;;;;;17.13;5.35;;;;;;;;;;4999819;28;20529;-67
2022/08/30 18:48:33;;;;;;;20.33;5.68;;;;;;;;;;5002940;28;20042;-67
2022/08/30 18:51:00;;;;;;;16.02;5.65;;;;;;;;;;5000066;28;20027;-66
2022/08/30 18:53:27;;;;;;;15.43;5.47;;;;;;;;;;5004274;28;20049;-66
2022/08/30 18:55:53;;;;;;;11.80;5.10;;;;;;;;;;4997227;28;20085;-66
2022/08/30 18:58:19;;;;;;;16.05;5.03;;;;;;;;;;4998631;28;20022;-66
2022/08/30 19:00:45;;;;;;;22.63;5.45;;;;;;;;;;5001735;28;20034;-66
2022/08/30 19:03:12;;;;;;;16.15;5.18;;;;;;;;;;5008069;28;20430;-66
2022/08/30 19:05:39;;;;;;;14.35;5.82;;;;;;;;;;4999408;28;20069;-66
2022/08/30 19:08:05;;;;;;;20.70;6.32;;;;;;;;;;5002420;28;20037;-65
2022/08/30 19:10:32;;;;;;;14.80;4.97;;;;;;;;;;5004518;28;20072;-65
2022/08/30 19:12:58;;;;;;;17.42;5.68;;;;;;;;;;5004784;28;20026;-64
2022/08/30 19:15:25;;;;;;;15.13;4.72;;;;;;;;;;5002434;28;20044;-64
2022/08/30 19:17:52;;;;;;;13.88;4.90;;;;;;;;;;5016617;28;20030;-64
2022/08/30 19:20:19;;;;;;;22.30;5.40;;;;;;;;;;5015489;28;20462;-64
2022/08/30 19:22:46;;;;;;;17.23;4.97;;;;;;;;;;5015759;28;20115;-64
2022/08/30 19:25:12;;;;;;;18.50;4.85;;;;;;;;;;5024422;28;20033;-64
2022/08/30 19:27:38;;;;;;;17.95;5.95;;;;;;;;;;5022290;28;20033;-64
2022/08/30 19:30:09;;;;;;;14.07;5.35;;;;;;;;;;5013534;28;20117;-64
2022/08/30 19:32:35;;;;;;;13.85;5.25;;;;;;;;;;5014930;28;20100;-64
2022/08/30 19:35:01;;;;;;;14.18;5.43;;;;;;;;;;5014933;28;20034;-64
2022/08/30 19:37:27;;;;;;;20.38;5.20;;;;;;;;;;5015041;28;20204;-64
2022/08/30 19:39:54;;;;;;;13.43;5.32;;;;;;;;;;5012823;28;20433;-64
2022/08/30 19:42:20;;;;;;;18.85;5.40;;;;;;;;;;5011955;28;20049;-64
2022/08/30 19:44:49;;;;;;;14.13;5.30;;;;;;;;;;5015376;28;20021;-64
2022/08/30 19:47:15;;;;;;;16.30;4.95;;;;;;;;;;5010655;28;20026;-64
2022/08/30 19:49:41;;;;;;;15.10;5.55;;;;;;;;;;5012061;28;20030;-64
2022/08/30 19:52:07;;;;;;;15.35;5.68;;;;;;;;;;5012776;28;20462;-64
2022/08/30 19:54:33;;;;;;;15.52;5.47;;;;;;;;;;5015002;28;20061;-64
2022/08/30 19:56:59;;;;;;;14.40;4.82;;;;;;;;;;5013018;28;20030;-64
2022/08/30 19:59:25;;;;;;;15.82;5.15;;;;;;;;;;5014365;28;20371;-64
2022/08/30 20:01:51;;;;;;;12.40;5.88;;;;;;;;;;5014338;28;20121;-64
2022/08/30 20:04:17;;;;;;;21.77;5.22;;;;;;;;;;5013786;28;20041;-64
2022/08/30 20:06:44;;;;;;;15.30;5.35;;;;;;;;;;5006628;28;20475;-64
2022/08/30 20:09:11;;;;;;;18.20;4.85;;;;;;;;;;5012369;28;20446;-64
2022/08/30 20:11:37;;;;;;;15.60;4.95;;;;;;;;;;5004979;28;20402;-64
2022/08/30 20:14:04;;;;;;;17.98;5.32;;;;;;;;;;5013645;28;20466;-64
2022/08/30 20:16:33;;;;;;;16.48;5.35;;;;;;;;;;5021135;28;20025;-64
2022/08/30 20:18:59;;;;;;;13.10;5.32;;;;;;;;;;5017310;28;20610;-64
2022/08/30 20:21:25;;;;;;;18.33;5.95;;;;;;;;;;5012512;28;20030;-64
2022/08/30 20:23:51;;;;;;;17.02;6.95;;;;;;;;;;5008898;28;20026;-64
2022/08/30 20:26:17;;;;;;;14.27;5.85;;;;;;;;;;5005826;28;20030;-64
2022/08/30 20:28:43;;;;;;;13.57;4.85;;;;;;;;;;5002212;28;20033;-64
2022/08/30 20:31:10;;;;;;;19.50;5.30;;;;;;;;;;5013563;28;20092;-64
2022/08/30 20:33:36;;;;;;;13.25;5.50;;;;;;;;;;5008904;28;20068;-64
2022/08/30 20:36:03;;;;;;;15.15;6.40;;;;;;;;;;5007286;28;20064;-64
2022/08/30 20:38:29;;;;;;;17.20;5.40;;;;;;;;;;5013769;28;20026;-64
2022/08/30 20:40:57;;;;;;;19.67;6.40;;;;;;;;;;5003853;28;20034;-64
2022/08/30 20:43:25;;;;;;;15.57;5.13;;;;;;;;;;5005728;28;20524;-64
2022/08/30 20:45:51;;;;;;;16.75;5.35;;;;;;;;;;5011045;28;20026;-64
2022/08/30 20:48:18;;;;;;;17.60;5.82;;;;;;;;;;5013746;28;20037;-64
2022/08/30 20:50:44;;;;;;;14.55;5.88;;;;;;;;;;5012897;28;20022;-64
2022/08/30 20:53:11;;;;;;;19.10;7.07;;;;;;;;;;5014255;28;20370;-64
2022/08/30 20:55:44;;;;;;;15.20;6.35;;;;;;;;;;5013582;28;20038;-64
2022/08/30 20:58:10;;;;;;;19.40;6.28;;;;;;;;;;5013752;28;20042;-64
2022/08/30 21:00:36;;;;;;;16.42;6.47;;;;;;;;;;5009790;28;20039;-64
2022/08/30 21:03:03;;;;;;;22.05;7.15;;;;;;;;;;5011260;28;20038;-64
2022/08/30 21:05:29;;;;;;;16.85;6.22;;;;;;;;;;5009123;28;20478;-64
2022/08/30 21:07:55;;;;;;;18.70;6.15;;;;;;;;;;5013251;28;20080;-64
2022/08/30 21:10:22;;;;;;;16.45;7.03;;;;;;;;;;5012043;28;20034;-64
2022/08/30 21:12:48;;;;;;;19.85;6.90;;;;;;;;;;5013773;28;20394;-64
2022/08/30 21:15:14;;;;;;;20.17;7.43;;;;;;;;;;5007919;28;20021;-64
2022/08/30 21:17:40;;;;;;;22.02;7.82;;;;;;;;;;5006396;28;20105;-64
2022/08/30 21:20:07;;;;;;;16.23;6.32;;;;;;;;;;5009814;28;20029;-64
2022/08/30 21:22:34;;;;;;;19.67;7.10;;;;;;;;;;5027972;28;20506;-64
2022/08/30 21:25:01;;;;;;;15.45;7.47;;;;;;;;;;5011895;28;20026;-64
2022/08/30 21:27:27;;;;;;;16.77;6.95;;;;;;;;;;5011445;28;20040;-64
2022/08/30 21:29:53;;;;;;;12.77;7.38;;;;;;;;;;5012750;28;20477;-64
2022/08/30 21:32:19;;;;;;;15.60;6.82;;;;;;;;;;5013348;28;20092;-64
2022/08/30 21:37:30;;;;;;;16.10;8.00;;;;;;;;;;5021056;28;20068;-64
2022/08/30 21:39:56;;;;;;;20.10;7.32;;;;;;;;;;5013127;28;20108;-64
2022/08/30 21:42:22;;;;;;;20.83;7.68;;;;;;;;;;5014896;28;20065;-64
2022/08/30 21:44:48;;;;;;;26.33;8.48;;;;;;;;;;5012523;28;20474;-64
2022/08/30 21:47:15;;;;;;;25.33;8.23;;;;;;;;;;5012862;28;20414;-65
2022/08/30 21:49:41;;;;;;;16.90;7.43;;;;;;;;;;5012771;28;20037;-65
2022/08/30 21:52:07;;;;;;;24.55;7.60;;;;;;;;;;5012861;28;20030;-65
2022/08/30 21:54:33;;;;;;;14.80;6.70;;;;;;;;;;5012782;28;20018;-65
2022/08/30 21:57:01;;;;;;;18.63;8.60;;;;;;;;;;5015027;28;20030;-65
2022/08/30 21:59:27;;;;;;;23.73;7.65;;;;;;;;;;5012763;28;20116;-65
2022/08/30 22:01:54;;;;;;;17.70;8.23;;;;;;;;;;5009032;28;20120;-65
2022/08/30 22:04:20;;;;;;;27.95;8.95;;;;;;;;;;5017408;28;20036;-65
2022/08/30 22:06:48;;;;;;;17.88;7.68;;;;;;;;;;5017113;28;20049;-65
2022/08/30 22:09:16;;;;;;;20.00;7.18;;;;;;;;;;5007697;28;20038;-65
2022/08/30 22:11:43;;;;;;;22.25;6.95;;;;;;;;;;5012335;28;20061;-65
2022/08/30 22:14:09;;;;;;;32.90;8.10;;;;;;;;;;5012415;28;20037;-65
2022/08/30 22:16:36;;;;;;;17.17;7.28;;;;;;;;;;5014398;28;20110;-65
2022/08/30 22:19:02;;;;;;;16.40;7.72;;;;;;;;;;5011702;28;20096;-65
2022/08/30 22:21:30;;;;;;;24.25;7.43;;;;;;;;;;5012648;28;20057;-65
2022/08/30 22:23:57;;;;;;;18.15;6.93;;;;;;;;;;5012371;28;20026;-65
2022/08/30 22:26:24;;;;;;;19.98;7.05;;;;;;;;;;5010632;28;20441;-65
2022/08/30 22:28:51;;;;;;;23.92;7.53;;;;;;;;;;5012229;28;20029;-65
2022/08/30 22:31:18;;;;;;;24.75;7.72;;;;;;;;;;5012592;28;20026;-65
2022/08/30 22:33:45;;;;;;;18.50;6.07;;;;;;;;;;5014605;28;20541;-65
2022/08/30 22:36:13;;;;;;;16.20;6.78;;;;;;;;;;5012346;28;20096;-65
2022/08/30 22:38:39;;;;;;;15.40;6.55;;;;;;;;;;5010207;28;20067;-65
2022/08/30 22:41:13;;;;;;;16.42;6.70;;;;;;;;;;5009846;28;20022;-65
2022/08/30 22:43:40;;;;;;;18.90;6.30;;;;;;;;;;5011912;28;20164;-65
2022/08/30 22:46:06;;;;;;;18.05;7.10;;;;;;;;;;5011563;28;20028;-65
2022/08/30 22:48:35;;;;;;;21.95;5.68;;;;;;;;;;5012425;28;20059;-65
2022/08/30 22:51:01;;;;;;;23.67;6.90;;;;;;;;;;5016101;28;20030;-65
2022/08/30 22:53:28;;;;;;;18.10;6.00;;;;;;;;;;5012207;28;20041;-65
2022/08/30 22:55:54;;;;;;;23.63;7.15;;;;;;;;;;5027389;28;20022;-65
2022/08/30 22:58:21;;;;;;;22.35;6.82;;;;;;;;;;5012209;28;20061;-65
2022/08/30 23:00:47;;;;;;;17.27;7.50;;;;;;;;;;5014333;28;20093;-65
2022/08/30 23:03:13;;;;;;;18.20;6.20;;;;;;;;;;5012172;28;20038;-65
2022/08/30 23:05:40;;;;;;;19.08;6.40;;;;;;;;;;5011999;28;20029;-65
2022/08/30 23:08:06;;;;;;;18.42;6.20;;;;;;;;;;5012119;28;20398;-65
2022/08/30 23:10:33;;;;;;;24.75;7.63;;;;;;;;;;5011917;28;20055;-65
2022/08/30 23:12:59;;;;;;;16.98;5.75;;;;;;;;;;5011917;28;20044;-65
2022/08/30 23:15:26;;;;;;;20.77;7.20;;;;;;;;;;5016972;28;20506;-65
2022/08/30 23:17:53;;;;;;;18.80;6.00;;;;;;;;;;5015625;28;20054;-65
2022/08/30 23:20:20;;;;;;;25.23;7.15;;;;;;;;;;5015580;28;20120;-65
